createdAt,value
2019-05-09T00:02:13.768Z,0.87
2019-05-09T00:04:44.078Z,0.90
2019-05-09T00:07:13.867Z,0.73
2019-05-09T00:09:43.960Z,0.90
2019-05-09T00:12:11.298Z,0.90
2019-05-09T00:14:39.150Z,1.10
2019-05-09T00:17:07.101Z,0.83
2019-05-09T00:19:34.932Z,0.70
2019-05-09T00:22:03.426Z,0.80
2019-05-09T00:24:33.225Z,0.70
2019-05-09T00:27:01.056Z,0.93
2019-05-09T00:29:48.487Z,1.00
2019-05-09T00:32:47.445Z,1.10
2019-05-09T00:35:34.469Z,0.83
2019-05-09T00:38:05.132Z,0.90
2019-05-09T00:40:34.185Z,0.90
2019-05-09T00:43:03.932Z,0.90
2019-05-09T00:45:51.028Z,0.70
2019-05-09T00:48:23.067Z,1.10
2019-05-09T00:50:50.987Z,1.20
2019-05-09T00:53:18.916Z,0.90
2019-05-09T00:55:47.262Z,1.17
2019-05-09T00:58:15.188Z,0.90
2019-05-09T01:00:43.982Z,1.00
2019-05-09T01:03:13.962Z,1.30
2019-05-09T01:05:43.598Z,1.10
2019-05-09T01:08:13.557Z,1.30
2019-05-09T01:10:40.892Z,1.00
2019-05-09T01:13:08.814Z,1.20
2019-05-09T01:15:36.774Z,1.00
2019-05-09T01:18:04.735Z,1.33
2019-05-09T01:20:33.307Z,0.90
2019-05-09T01:23:03.328Z,1.23
2019-05-09T01:25:33.357Z,1.07
2019-05-09T01:28:03.135Z,0.90
2019-05-09T01:30:30.654Z,1.27
2019-05-09T01:33:17.610Z,1.30
2019-05-09T01:35:45.647Z,1.37
2019-05-09T01:38:14.168Z,1.20
2019-05-09T01:40:43.897Z,1.10
2019-05-09T01:43:13.878Z,1.30
2019-05-09T01:45:43.207Z,1.70
2019-05-09T01:48:11.231Z,0.90
2019-05-09T01:50:39.102Z,1.00
2019-05-09T01:53:07.167Z,0.90
2019-05-09T01:55:53.926Z,1.13
2019-05-09T01:58:23.277Z,0.90
2019-05-09T02:00:54.016Z,0.77
2019-05-09T02:03:23.330Z,1.03
2019-05-09T02:05:53.180Z,0.70
2019-05-09T02:08:23.479Z,0.83
2019-05-09T02:10:51.166Z,0.80
2019-05-09T02:13:19.189Z,0.70
2019-05-09T02:15:57.648Z,0.90
2019-05-09T02:18:33.198Z,0.80
2019-05-09T02:21:00.635Z,0.60
2019-05-09T02:23:28.581Z,0.73
2019-05-09T02:25:56.657Z,0.80
2019-05-09T02:28:24.494Z,1.03
2019-05-09T02:30:54.807Z,0.70
2019-05-09T02:33:24.805Z,0.60
2019-05-09T02:35:56.965Z,0.60
2019-05-09T02:38:21.285Z,0.60
2019-05-09T02:40:50.194Z,0.70
2019-05-09T02:43:18.827Z,0.67
2019-05-09T02:45:59.430Z,0.60
2019-05-09T02:48:28.726Z,0.77
2019-05-09T02:51:00.117Z,0.90
2019-05-09T02:53:28.911Z,0.67
2019-05-09T02:55:58.654Z,0.70
2019-05-09T02:58:28.417Z,0.90
2019-05-09T03:01:18.698Z,0.50
2019-05-09T03:03:48.064Z,0.90
2019-05-09T03:06:14.659Z,0.67
2019-05-09T03:08:42.503Z,0.77
2019-05-09T03:11:10.449Z,0.70
2019-05-09T03:13:39.389Z,0.73
2019-05-09T03:16:13.687Z,0.50
2019-05-09T03:18:41.647Z,0.60
2019-05-09T03:21:32.452Z,0.67
2019-05-09T03:24:00.483Z,0.60
2019-05-09T03:26:32.149Z,0.90
2019-05-09T03:29:18.788Z,0.33
2019-05-09T03:31:49.777Z,0.60
2019-05-09T03:34:19.107Z,1.03
2019-05-09T03:36:47.570Z,0.40
2019-05-09T03:39:14.871Z,0.53
2019-05-09T03:41:43.714Z,0.60
2019-05-09T03:44:11.775Z,0.50
2019-05-09T03:47:04.589Z,0.70
2019-05-09T03:49:32.519Z,0.53
2019-05-09T03:52:00.386Z,0.50
2019-05-09T03:54:28.442Z,0.77
2019-05-09T03:57:01.694Z,0.60
2019-05-09T03:59:29.578Z,0.77
2019-05-09T04:01:59.049Z,0.60
2019-05-09T04:04:28.123Z,0.70
2019-05-09T04:06:58.038Z,0.70
2019-05-09T04:09:27.328Z,0.60
2019-05-09T04:11:55.494Z,0.70
2019-05-09T04:14:28.072Z,0.57
2019-05-09T04:16:57.540Z,0.57
2019-05-09T04:19:27.416Z,0.63
2019-05-09T04:21:54.865Z,0.60
2019-05-09T04:24:23.390Z,0.53
2019-05-09T04:27:07.789Z,0.60
2019-05-09T04:29:37.391Z,0.50
2019-05-09T04:32:07.782Z,0.70
2019-05-09T04:34:35.272Z,0.67
2019-05-09T04:37:03.196Z,0.80
2019-05-09T04:39:32.806Z,0.80
2019-05-09T04:42:05.211Z,0.77
2019-05-09T04:44:37.512Z,1.10
2019-05-09T04:47:05.832Z,1.20
2019-05-09T04:49:39.673Z,1.30
2019-05-09T04:52:03.520Z,1.23
2019-05-09T04:54:31.460Z,0.87
2019-05-09T04:56:59.410Z,1.00
2019-05-09T04:59:28.305Z,1.00
2019-05-09T05:02:28.019Z,1.23
2019-05-09T05:04:58.387Z,1.00
2019-05-09T05:07:25.633Z,0.93
2019-05-09T05:09:53.616Z,0.90
2019-05-09T05:12:21.559Z,0.90
2019-05-09T05:14:49.539Z,0.80
2019-05-09T05:17:18.117Z,1.13
2019-05-09T05:19:47.615Z,1.20
2019-05-09T05:22:21.311Z,1.40
2019-05-09T05:24:59.796Z,1.17
2019-05-09T05:27:27.905Z,1.30
2019-05-09T05:29:58.129Z,1.20
2019-05-09T05:32:38.575Z,1.40
2019-05-09T05:35:34.052Z,2.03
2019-05-09T05:38:01.941Z,1.80
2019-05-09T05:40:32.837Z,1.80
2019-05-09T05:42:59.447Z,1.23
2019-05-09T05:45:28.973Z,1.40
2019-05-09T05:48:00.121Z,1.70
2019-05-09T05:50:28.250Z,1.43
2019-05-09T05:52:57.787Z,1.40
2019-05-09T05:55:27.465Z,1.43
2019-05-09T05:57:57.737Z,1.53
2019-05-09T06:00:28.356Z,1.40
2019-05-09T06:02:58.323Z,1.07
2019-05-09T06:05:27.643Z,1.50
2019-05-09T06:07:54.939Z,1.30
2019-05-09T06:10:22.949Z,1.57
2019-05-09T06:12:50.985Z,1.87
2019-05-09T06:15:18.852Z,1.53
2019-05-09T06:17:48.427Z,1.43
2019-05-09T06:20:17.764Z,1.50
2019-05-09T06:22:47.711Z,1.60
2019-05-09T06:25:20.105Z,1.60
2019-05-09T06:27:48.068Z,1.57
2019-05-09T06:30:18.952Z,1.47
2019-05-09T06:32:47.716Z,1.60
2019-05-09T06:35:18.884Z,1.30
2019-05-09T06:37:47.783Z,1.20
2019-05-09T06:40:20.947Z,1.53
2019-05-09T06:42:48.887Z,1.30
2019-05-09T06:45:39.118Z,1.30
2019-05-09T06:48:04.796Z,1.47
2019-05-09T06:50:32.691Z,1.57
2019-05-09T06:53:00.597Z,1.30
2019-05-09T06:55:29.801Z,1.00
2019-05-09T06:57:58.435Z,1.40
2019-05-09T07:00:50.270Z,1.53
2019-05-09T07:03:20.818Z,1.43
2019-05-09T07:06:08.325Z,1.10
2019-05-09T07:08:44.827Z,0.80
2019-05-09T07:11:12.808Z,2.00
2019-05-09T07:13:41.131Z,1.60
2019-05-09T07:16:09.314Z,1.73
2019-05-09T07:18:38.301Z,2.10
2019-05-09T07:21:08.228Z,1.60
2019-05-09T07:23:37.352Z,2.20
2019-05-09T07:26:17.833Z,2.23
2019-05-09T07:28:48.420Z,1.70
2019-05-09T07:31:41.113Z,2.17
2019-05-09T07:34:34.047Z,2.07
2019-05-09T07:37:02.117Z,1.60
2019-05-09T07:39:30.051Z,2.00
2019-05-09T07:41:58.484Z,1.40
2019-05-09T07:44:33.105Z,1.40
2019-05-09T07:46:58.523Z,1.03
2019-05-09T07:49:28.337Z,1.43
2019-05-09T07:51:58.374Z,3.97
2019-05-09T07:54:29.234Z,1.70
2019-05-09T07:56:57.863Z,1.07
2019-05-09T07:59:27.300Z,1.20
2019-05-09T08:01:55.021Z,0.90
2019-05-09T08:04:25.114Z,1.07
2019-05-09T08:06:52.559Z,0.90
2019-05-09T08:09:20.518Z,0.87
2019-05-09T08:11:48.505Z,1.10
2019-05-09T08:14:17.582Z,1.33
2019-05-09T08:16:47.565Z,1.57
2019-05-09T08:19:17.934Z,1.17
2019-05-09T08:21:47.829Z,1.00
2019-05-09T08:24:15.048Z,0.90
2019-05-09T08:26:42.924Z,0.70
2019-05-09T08:29:10.985Z,1.30
2019-05-09T08:31:40.449Z,0.80
2019-05-09T08:34:08.723Z,0.90
2019-05-09T08:36:38.473Z,0.70
2019-05-09T08:39:08.344Z,0.90
2019-05-09T08:41:38.416Z,1.00
2019-05-09T08:44:07.969Z,0.97
2019-05-09T08:46:37.743Z,0.90
2019-05-09T08:49:07.978Z,1.00
2019-05-09T08:52:06.872Z,1.00
2019-05-09T08:54:35.090Z,1.00
2019-05-09T08:57:02.963Z,0.93
2019-05-09T08:59:30.883Z,0.77
2019-05-09T09:02:12.391Z,0.90
2019-05-09T09:04:29.524Z,0.70
2019-05-09T09:06:57.729Z,1.33
2019-05-09T09:09:25.775Z,0.80
2019-05-09T09:11:53.703Z,0.63
2019-05-09T09:14:22.022Z,0.77
2019-05-09T09:16:49.985Z,0.80
2019-05-09T09:19:18.006Z,0.73
2019-05-09T09:21:47.592Z,0.80
2019-05-09T09:24:17.724Z,0.50
2019-05-09T09:26:47.970Z,0.60
2019-05-09T09:29:15.238Z,0.90
2019-05-09T09:31:44.867Z,1.00
2019-05-09T09:34:12.885Z,0.60
2019-05-09T09:36:40.791Z,0.70
2019-05-09T09:39:08.915Z,0.70
2019-05-09T09:41:38.669Z,0.50
2019-05-09T09:44:08.769Z,0.53
2019-05-09T09:46:37.459Z,0.43
2019-05-09T09:49:07.949Z,0.60
2019-05-09T09:51:38.024Z,0.70
2019-05-09T09:54:05.126Z,0.70
2019-05-09T09:56:33.224Z,0.60
2019-05-09T09:59:32.322Z,0.60
2019-05-09T10:02:00.533Z,0.63
2019-05-09T10:04:28.584Z,0.50
2019-05-09T10:06:58.347Z,0.63
2019-05-09T10:09:26.167Z,0.83
2019-05-09T10:12:00.579Z,0.60
2019-05-09T10:14:33.221Z,0.90
2019-05-09T10:17:28.982Z,0.50
2019-05-09T10:20:01.341Z,0.53
2019-05-09T10:22:29.444Z,0.70
2019-05-09T10:24:58.568Z,0.80
2019-05-09T10:27:28.378Z,0.90
2019-05-09T10:29:57.457Z,0.80
2019-05-09T10:32:25.508Z,0.60
2019-05-09T10:34:53.549Z,0.70
2019-05-09T10:37:21.422Z,0.97
2019-05-09T10:39:49.426Z,0.70
2019-05-09T10:42:37.925Z,1.00
2019-05-09T10:45:30.731Z,1.37
2019-05-09T10:47:58.762Z,0.80
2019-05-09T10:50:32.974Z,0.83
2019-05-09T10:52:58.540Z,1.40
2019-05-09T10:55:28.272Z,1.00
2019-05-09T10:58:01.822Z,0.80
2019-05-09T11:00:25.470Z,1.00
2019-05-09T11:02:53.447Z,0.90
2019-05-09T11:05:21.425Z,1.20
2019-05-09T11:07:49.683Z,1.20
2019-05-09T11:10:25.696Z,0.97
2019-05-09T11:12:47.887Z,0.80
2019-05-09T11:15:17.759Z,0.90
2019-05-09T11:17:47.478Z,0.87
2019-05-09T11:20:19.086Z,0.83
2019-05-09T11:22:45.446Z,1.17
2019-05-09T11:25:13.466Z,1.10
2019-05-09T11:27:41.666Z,0.80
2019-05-09T11:30:09.795Z,0.80
2019-05-09T11:32:38.554Z,0.80
2019-05-09T11:35:09.041Z,0.70
2019-05-09T11:37:38.360Z,0.83
2019-05-09T11:40:06.708Z,1.00
2019-05-09T11:42:35.212Z,0.90
2019-05-09T11:45:03.245Z,0.80
2019-05-09T11:47:38.142Z,1.20
2019-05-09T11:50:00.948Z,0.80
2019-05-09T11:52:29.102Z,0.63
2019-05-09T11:54:57.997Z,0.63
2019-05-09T11:57:28.640Z,1.00
2019-05-09T11:59:57.916Z,0.50
2019-05-09T12:02:27.825Z,0.87
2019-05-09T12:04:55.303Z,0.80
2019-05-09T12:07:23.259Z,0.77
2019-05-09T12:09:51.264Z,0.90
2019-05-09T12:12:19.626Z,1.03
2019-05-09T12:14:48.490Z,0.80
2019-05-09T12:17:19.266Z,1.10
2019-05-09T12:19:48.794Z,0.80
2019-05-09T12:22:18.881Z,1.10
2019-05-09T12:24:47.978Z,0.83
2019-05-09T12:27:15.157Z,0.87
2019-05-09T12:29:43.100Z,0.70
2019-05-09T12:32:10.973Z,0.90
2019-05-09T12:34:39.057Z,1.70
2019-05-09T12:37:09.489Z,0.70
2019-05-09T12:39:37.816Z,0.90
2019-05-09T12:42:08.669Z,1.20
2019-05-09T12:44:35.435Z,0.73
2019-05-09T12:47:03.519Z,1.00
2019-05-09T12:49:31.477Z,0.90
2019-05-09T12:51:59.515Z,1.27
2019-05-09T12:54:28.010Z,0.70
2019-05-09T12:56:58.968Z,0.90
2019-05-09T12:59:28.521Z,0.97
2019-05-09T13:01:58.054Z,0.80
2019-05-09T13:04:27.995Z,1.03
2019-05-09T13:06:58.428Z,1.07
2019-05-09T13:09:28.429Z,1.00
2019-05-09T13:11:57.673Z,0.83
2019-05-09T13:14:25.421Z,0.90
2019-05-09T13:17:08.638Z,0.80
2019-05-09T13:19:39.852Z,0.83
2019-05-09T13:22:08.269Z,1.00
2019-05-09T13:24:37.875Z,0.60
2019-05-09T13:27:07.953Z,0.80
2019-05-09T13:29:37.833Z,0.83
2019-05-09T13:32:05.197Z,0.53
2019-05-09T13:34:33.071Z,0.50
2019-05-09T13:37:01.063Z,0.57
2019-05-09T13:39:28.961Z,0.70
2019-05-09T13:41:58.246Z,0.70
2019-05-09T13:44:27.767Z,0.70
2019-05-09T13:46:58.238Z,0.60
2019-05-09T13:49:25.373Z,0.60
2019-05-09T13:52:00.472Z,0.77
2019-05-09T13:54:23.417Z,0.50
2019-05-09T13:56:57.565Z,0.80
2019-05-09T13:59:21.088Z,0.83
2019-05-09T14:01:49.064Z,0.60
2019-05-09T14:04:17.044Z,0.63
2019-05-09T14:06:44.930Z,1.40
2019-05-09T14:09:12.895Z,0.90
2019-05-09T14:11:40.812Z,0.87
2019-05-09T14:14:08.711Z,1.00
2019-05-09T14:16:39.004Z,0.90
2019-05-09T14:19:26.098Z,0.70
2019-05-09T14:21:36.933Z,0.93
2019-05-09T14:24:14.230Z,1.10
2019-05-09T14:26:34.530Z,0.60
2019-05-09T14:29:02.413Z,1.00
2019-05-09T14:31:32.486Z,0.80
2019-05-09T14:34:00.075Z,0.70
2019-05-09T14:36:27.984Z,1.40
2019-05-09T14:38:58.059Z,0.87
2019-05-09T14:41:27.704Z,0.70
2019-05-09T14:43:55.166Z,0.67
2019-05-09T14:46:23.043Z,0.70
2019-05-09T14:48:50.961Z,0.97
2019-05-09T14:51:18.819Z,0.70
2019-05-09T14:53:48.556Z,0.90
2019-05-09T14:56:16.350Z,1.10
2019-05-09T14:58:44.219Z,0.70
2019-05-09T15:01:13.136Z,0.90
2019-05-09T15:03:41.060Z,0.83
2019-05-09T15:06:09.175Z,1.17
2019-05-09T15:08:38.243Z,1.00
2019-05-09T15:11:09.818Z,0.90
2019-05-09T15:13:36.544Z,1.80
2019-05-09T15:16:04.469Z,0.97
2019-05-09T15:18:32.373Z,1.20
2019-05-09T15:21:00.509Z,1.33
2019-05-09T15:23:29.327Z,1.50
2019-05-09T15:25:58.158Z,1.50
2019-05-09T15:28:26.133Z,1.30
2019-05-09T15:30:54.044Z,1.33
2019-05-09T15:33:21.955Z,1.13
2019-05-09T15:35:49.844Z,1.07
2019-05-09T15:38:18.279Z,0.93
2019-05-09T15:40:48.143Z,1.10
2019-05-09T15:43:18.649Z,1.13
2019-05-09T15:45:51.768Z,1.10
2019-05-09T15:48:19.645Z,1.50
2019-05-09T15:50:47.728Z,1.20
2019-05-09T15:53:15.720Z,1.43
2019-05-09T15:55:43.640Z,1.07
2019-05-09T15:58:11.556Z,1.10
2019-05-09T16:00:39.561Z,1.20
2019-05-09T16:03:07.625Z,1.10
2019-05-09T16:05:38.397Z,1.23
2019-05-09T16:08:09.024Z,1.10
2019-05-09T16:10:37.380Z,1.07
2019-05-09T16:13:05.053Z,1.70
2019-05-09T16:15:33.146Z,1.90
2019-05-09T16:18:01.151Z,1.20
2019-05-09T16:20:37.499Z,1.07
2019-05-09T16:23:01.734Z,1.20
2019-05-09T16:25:29.619Z,1.33
2019-05-09T16:27:58.670Z,1.10
2019-05-09T16:30:27.524Z,0.93
2019-05-09T16:32:55.556Z,1.20
2019-05-09T16:35:23.459Z,1.07
2019-05-09T16:38:01.276Z,1.10
2019-05-09T16:40:20.922Z,1.10
2019-05-09T16:42:48.806Z,1.10
2019-05-09T16:45:18.258Z,1.27
2019-05-09T16:47:48.536Z,1.33
2019-05-09T16:50:17.844Z,1.10
2019-05-09T16:52:48.294Z,1.07
2019-05-09T16:55:20.690Z,1.30
2019-05-09T16:57:48.626Z,1.30
2019-05-09T17:00:22.543Z,1.60
2019-05-09T17:02:50.812Z,1.10
2019-05-09T17:05:19.582Z,1.83
2019-05-09T17:07:47.739Z,1.40
2019-05-09T17:10:27.454Z,1.20
2019-05-09T17:12:55.364Z,1.00
2019-05-09T17:15:23.456Z,1.40
2019-05-09T17:17:51.317Z,1.67
2019-05-09T17:20:22.337Z,1.40
2019-05-09T17:23:13.754Z,1.23
2019-05-09T17:25:38.476Z,1.30
2019-05-09T17:28:06.529Z,1.40
2019-05-09T17:30:34.442Z,1.40
2019-05-09T17:33:07.709Z,1.47
2019-05-09T17:35:35.296Z,1.23
2019-05-09T17:38:03.205Z,1.30
2019-05-09T17:40:31.270Z,1.43
2019-05-09T17:42:59.647Z,1.83
2019-05-09T17:45:27.555Z,1.87
2019-05-09T17:47:57.705Z,1.50
2019-05-09T17:50:25.129Z,1.50
2019-05-09T17:52:53.025Z,2.80
2019-05-09T17:55:20.965Z,1.97
2019-05-09T17:57:48.971Z,1.80
2019-05-09T18:00:21.672Z,2.00
2019-05-09T18:02:48.599Z,2.00
2019-05-09T18:05:16.863Z,1.33
2019-05-09T18:07:44.784Z,1.97
2019-05-09T18:10:13.623Z,1.83
2019-05-09T18:12:41.542Z,2.00
2019-05-09T18:15:09.682Z,2.23
2019-05-09T18:17:38.284Z,1.90
2019-05-09T18:20:08.036Z,2.10
2019-05-09T18:22:36.028Z,2.20
2019-05-09T18:25:03.919Z,2.27
2019-05-09T18:27:31.907Z,2.23
2019-05-09T18:29:59.766Z,1.80
2019-05-09T18:32:41.881Z,2.10
2019-05-09T18:35:13.761Z,2.20
2019-05-09T18:37:41.761Z,2.10
2019-05-09T18:40:10.583Z,3.27
2019-05-09T18:42:38.478Z,2.40
2019-05-09T18:45:07.954Z,3.10
2019-05-09T18:47:36.098Z,2.90
2019-05-09T18:50:04.303Z,2.40
2019-05-09T18:52:32.391Z,2.63
2019-05-09T18:55:00.307Z,2.80
2019-05-09T18:57:28.331Z,2.27
2019-05-09T18:59:56.374Z,2.00
2019-05-09T19:02:24.323Z,1.87
2019-05-09T19:04:52.239Z,2.23
2019-05-09T19:07:22.753Z,1.87
2019-05-09T19:09:50.135Z,1.83
2019-05-09T19:12:18.182Z,1.93
2019-05-09T19:14:46.755Z,2.00
2019-05-09T19:17:35.420Z,1.80
2019-05-09T19:20:13.006Z,1.60
2019-05-09T19:22:40.994Z,2.00
2019-05-09T19:25:08.870Z,1.70
2019-05-09T19:27:36.885Z,1.77
2019-05-09T19:30:04.912Z,1.60
2019-05-09T19:32:32.843Z,1.73
2019-05-09T19:35:00.727Z,1.77
2019-05-09T19:37:28.573Z,3.30
2019-05-09T19:39:56.717Z,1.70
2019-05-09T19:42:24.665Z,1.60
2019-05-09T19:44:52.609Z,1.67
2019-05-09T19:47:20.577Z,2.20
2019-05-09T19:49:48.620Z,2.17
2019-05-09T19:52:16.494Z,1.80
2019-05-09T19:54:44.389Z,1.50
2019-05-09T19:57:12.622Z,1.77
2019-05-09T19:59:43.263Z,1.90
2019-05-09T20:02:10.965Z,1.83
2019-05-09T20:04:39.063Z,1.73
2019-05-09T20:07:07.096Z,1.67
2019-05-09T20:09:46.975Z,1.47
2019-05-09T20:12:31.591Z,1.53
2019-05-09T20:14:59.646Z,1.57
2019-05-09T20:17:27.584Z,1.73
2019-05-09T20:19:55.546Z,1.40
2019-05-09T20:22:23.898Z,1.30
2019-05-09T20:24:52.214Z,1.70
2019-05-09T20:27:20.182Z,1.20
2019-05-09T20:29:48.232Z,1.87
2019-05-09T20:32:16.188Z,1.23
2019-05-09T20:34:44.227Z,1.33
2019-05-09T20:37:12.445Z,1.53
2019-05-09T20:39:40.601Z,1.30
2019-05-09T20:42:08.666Z,1.43
2019-05-09T20:44:36.766Z,1.60
2019-05-09T20:47:04.887Z,1.40
2019-05-09T20:49:32.967Z,1.40
2019-05-09T20:52:01.089Z,1.60
2019-05-09T20:54:29.217Z,2.00
2019-05-09T20:56:57.435Z,2.13
2019-05-09T20:59:25.567Z,1.80
2019-05-09T21:01:53.669Z,1.77
2019-05-09T21:04:21.779Z,1.70
2019-05-09T21:06:49.950Z,1.57
2019-05-09T21:09:18.105Z,1.90
2019-05-09T21:11:46.242Z,1.80
2019-05-09T21:14:14.595Z,2.33
2019-05-09T21:16:42.794Z,1.97
2019-05-09T21:19:10.952Z,2.20
2019-05-09T21:21:39.073Z,1.63
2019-05-09T21:24:07.376Z,1.73
2019-05-09T21:26:36.119Z,1.80
2019-05-09T21:29:04.502Z,1.30
2019-05-09T21:31:32.958Z,2.10
2019-05-09T21:34:02.014Z,2.03
2019-05-09T21:36:30.147Z,1.40
2019-05-09T21:38:58.425Z,2.30
2019-05-09T21:41:26.568Z,1.37
2019-05-09T21:43:54.736Z,1.60
2019-05-09T21:46:22.999Z,1.53
2019-05-09T21:48:51.412Z,1.40
2019-05-09T21:51:19.711Z,1.20
2019-05-09T21:53:48.231Z,1.97
2019-05-09T21:56:16.975Z,1.53
2019-05-09T21:58:45.155Z,2.10
2019-05-09T22:01:15.645Z,1.60
2019-05-09T22:03:43.640Z,1.47
2019-05-09T22:06:11.688Z,1.50
2019-05-09T22:08:39.547Z,1.67
2019-05-09T22:11:07.463Z,2.03
2019-05-09T22:13:35.348Z,2.30
2019-05-09T22:16:03.300Z,1.57
2019-05-09T22:18:31.258Z,2.03
2019-05-09T22:20:59.389Z,1.67
2019-05-09T22:23:27.344Z,2.10
2019-05-09T22:25:55.262Z,1.57
2019-05-09T22:28:23.329Z,1.50
2019-05-09T22:30:51.355Z,2.00
2019-05-09T22:33:19.306Z,1.87
2019-05-09T22:35:47.307Z,1.80
2019-05-09T22:38:15.252Z,1.93
2019-05-09T22:40:43.225Z,1.70
2019-05-09T22:43:11.120Z,2.20
2019-05-09T22:45:39.044Z,1.90
2019-05-09T22:48:06.960Z,1.87
2019-05-09T22:50:34.845Z,1.80
2019-05-09T22:53:02.785Z,2.20
2019-05-09T22:55:30.756Z,2.00
2019-05-09T22:57:58.778Z,2.13
2019-05-09T23:00:26.738Z,1.60
2019-05-09T23:02:54.759Z,1.67
2019-05-09T23:05:22.724Z,1.80
2019-05-09T23:07:50.776Z,2.10
2019-05-09T23:10:18.790Z,1.90
2019-05-09T23:12:46.791Z,1.90
2019-05-09T23:15:16.572Z,2.00
2019-05-09T23:17:44.493Z,1.57
2019-05-09T23:20:31.368Z,1.60
2019-05-09T23:23:01.590Z,1.90
2019-05-09T23:25:29.490Z,1.80
2019-05-09T23:27:57.449Z,1.73
2019-05-09T23:30:25.480Z,1.80
2019-05-09T23:32:53.427Z,2.27
2019-05-09T23:35:21.382Z,2.10
2019-05-09T23:37:49.331Z,2.30
2019-05-09T23:40:17.297Z,2.50
2019-05-09T23:42:45.162Z,2.37
2019-05-09T23:45:13.127Z,2.10
2019-05-09T23:47:41.109Z,1.90
2019-05-09T23:50:09.172Z,2.00
2019-05-09T23:52:37.044Z,2.20
2019-05-09T23:55:22.957Z,2.10
2019-05-09T23:58:08.610Z,2.10
